createdAt,value
2022-08-03T00:01:40.507Z,18.97
2022-08-03T00:04:10.163Z,18.96
2022-08-03T00:06:38.263Z,18.96
2022-08-03T00:09:06.506Z,18.95
2022-08-03T00:11:34.685Z,18.96
2022-08-03T00:14:05.006Z,18.92
2022-08-03T00:16:33.164Z,18.89
2022-08-03T00:19:02.445Z,18.88
2022-08-03T00:21:31.582Z,18.90
2022-08-03T00:23:59.381Z,18.90
2022-08-03T00:26:27.158Z,18.90
2022-08-03T00:28:54.921Z,18.85
2022-08-03T00:31:45.004Z,18.82
2022-08-03T00:34:10.688Z,18.80
2022-08-03T00:36:40.448Z,18.79
2022-08-03T00:39:08.567Z,18.80
2022-08-03T00:41:36.478Z,18.78
2022-08-03T00:44:04.656Z,18.75
2022-08-03T00:46:32.509Z,18.66
2022-08-03T00:49:00.449Z,18.65
2022-08-03T00:51:28.223Z,18.62
2022-08-03T00:53:55.988Z,18.62
2022-08-03T00:56:23.865Z,18.63
2022-08-03T00:58:52.782Z,18.62
2022-08-03T01:01:20.665Z,18.60
2022-08-03T01:03:48.470Z,18.60
2022-08-03T01:06:29.133Z,18.58
2022-08-03T01:09:16.646Z,18.54
2022-08-03T01:11:59.852Z,18.55
2022-08-03T01:14:44.539Z,18.51
2022-08-03T01:17:22.948Z,18.49
2022-08-03T01:20:08.036Z,18.52
2022-08-03T01:23:01.027Z,18.50
2022-08-03T01:25:55.267Z,18.48
2022-08-03T01:29:01.471Z,18.47
2022-08-03T01:32:53.268Z,18.44
2022-08-03T01:35:04.948Z,18.39
2022-08-03T01:37:42.314Z,18.35
2022-08-03T01:40:13.370Z,18.30
2022-08-03T01:42:44.633Z,18.25
2022-08-03T01:45:15.400Z,18.26
2022-08-03T01:47:45.683Z,18.26
2022-08-03T01:50:15.189Z,18.21
2022-08-03T01:52:49.010Z,18.27
2022-08-03T01:55:20.425Z,18.27
2022-08-03T01:58:05.201Z,18.25
2022-08-03T02:00:38.871Z,18.23
2022-08-03T02:03:08.425Z,18.19
2022-08-03T02:05:39.533Z,18.20
2022-08-03T02:08:12.871Z,18.22
2022-08-03T02:10:46.119Z,18.24
2022-08-03T02:13:15.590Z,18.27
2022-08-03T02:15:44.840Z,18.28
2022-08-03T02:18:13.915Z,18.23
2022-08-03T02:20:43.481Z,18.21
2022-08-03T02:23:11.424Z,18.20
2022-08-03T02:25:44.774Z,18.21
2022-08-03T02:28:20.758Z,18.21
2022-08-03T02:30:54.792Z,18.21
2022-08-03T02:33:38.859Z,18.26
2022-08-03T02:36:08.567Z,18.21
2022-08-03T02:38:41.273Z,18.19
2022-08-03T02:41:13.701Z,18.18
2022-08-03T02:44:06.145Z,18.19
2022-08-03T02:46:38.643Z,18.17
2022-08-03T02:49:41.421Z,18.20
2022-08-03T02:51:56.530Z,18.23
2022-08-03T02:54:26.926Z,18.25
2022-08-03T02:56:58.566Z,18.24
2022-08-03T02:59:31.139Z,18.28
2022-08-03T03:02:00.261Z,18.29
2022-08-03T03:04:32.947Z,18.25
2022-08-03T03:07:04.594Z,18.29
2022-08-03T03:09:41.620Z,18.20
2022-08-03T03:12:13.737Z,18.20
2022-08-03T03:14:41.795Z,18.21
2022-08-03T03:17:11.751Z,18.29
2022-08-03T03:19:41.480Z,18.26
2022-08-03T03:22:10.758Z,18.21
2022-08-03T03:24:41.615Z,18.21
2022-08-03T03:27:10.217Z,18.26
2022-08-03T03:29:44.937Z,18.31
2022-08-03T03:32:13.358Z,18.25
2022-08-03T03:34:42.728Z,18.19
2022-08-03T03:37:12.325Z,18.20
2022-08-03T03:39:40.107Z,18.18
2022-08-03T03:42:08.103Z,18.19
2022-08-03T03:44:36.019Z,18.25
2022-08-03T03:47:03.975Z,18.29
2022-08-03T03:49:32.659Z,18.28
2022-08-03T03:52:00.514Z,18.23
2022-08-03T03:54:43.772Z,18.32
2022-08-03T03:57:13.715Z,18.39
2022-08-03T03:59:42.751Z,18.40
2022-08-03T04:02:12.090Z,18.36
2022-08-03T04:04:58.619Z,18.39
2022-08-03T04:07:46.497Z,18.50
2022-08-03T04:10:39.896Z,18.55
2022-08-03T04:13:12.133Z,18.53
2022-08-03T04:15:41.402Z,18.57
2022-08-03T04:18:13.871Z,18.60
2022-08-03T04:20:47.628Z,18.64
2022-08-03T04:23:21.100Z,18.75
2022-08-03T04:25:51.672Z,18.80
2022-08-03T04:28:30.686Z,18.84
2022-08-03T04:31:03.189Z,18.81
2022-08-03T04:33:37.125Z,18.84
2022-08-03T04:36:10.844Z,18.92
2022-08-03T04:38:51.478Z,18.98
2022-08-03T04:41:22.834Z,19.01
2022-08-03T04:43:53.790Z,19.05
2022-08-03T04:46:25.322Z,19.11
2022-08-03T04:48:54.201Z,19.15
2022-08-03T04:51:22.909Z,19.15
2022-08-03T04:53:50.864Z,19.12
2022-08-03T04:56:19.096Z,19.20
2022-08-03T04:58:46.982Z,19.27
2022-08-03T05:01:16.449Z,19.40
2022-08-03T05:03:44.326Z,19.48
2022-08-03T05:06:12.608Z,19.51
2022-08-03T05:08:47.227Z,19.58
2022-08-03T05:11:19.471Z,19.69
2022-08-03T05:13:48.049Z,19.78
2022-08-03T05:16:15.779Z,19.78
2022-08-03T05:18:43.573Z,19.83
2022-08-03T05:21:14.505Z,19.86
2022-08-03T05:23:43.956Z,19.88
2022-08-03T05:26:12.037Z,19.90
2022-08-03T05:28:40.137Z,20.00
2022-08-03T05:31:19.770Z,20.12
2022-08-03T05:33:48.951Z,20.18
2022-08-03T05:36:16.864Z,20.16
2022-08-03T05:38:44.804Z,20.27
2022-08-03T05:41:21.658Z,20.34
2022-08-03T05:43:55.459Z,20.29
2022-08-03T05:46:23.758Z,20.29
2022-08-03T05:48:52.338Z,20.31
2022-08-03T05:51:21.979Z,20.34
2022-08-03T05:53:49.992Z,20.49
2022-08-03T05:56:17.901Z,20.68
2022-08-03T05:58:47.715Z,20.92
2022-08-03T06:01:17.610Z,21.14
2022-08-03T06:03:46.323Z,21.39
2022-08-03T06:06:15.000Z,21.61
2022-08-03T06:08:44.123Z,21.81
2022-08-03T06:11:13.161Z,21.97
2022-08-03T06:13:41.557Z,22.10
2022-08-03T06:16:10.171Z,22.08
2022-08-03T06:18:39.046Z,22.06
2022-08-03T06:21:14.098Z,22.15
2022-08-03T06:23:53.809Z,22.26
2022-08-03T06:26:26.529Z,22.47
2022-08-03T06:28:56.877Z,22.68
2022-08-03T06:31:33.450Z,22.89
2022-08-03T06:34:33.749Z,23.05
2022-08-03T06:36:58.587Z,23.05
2022-08-03T06:39:30.135Z,23.17
2022-08-03T06:41:58.189Z,23.07
2022-08-03T06:44:26.129Z,22.98
2022-08-03T06:46:54.068Z,22.84
2022-08-03T06:49:22.025Z,22.69
2022-08-03T06:52:05.871Z,22.57
2022-08-03T06:54:36.003Z,22.40
2022-08-03T06:57:05.347Z,22.29
2022-08-03T07:00:07.446Z,22.35
2022-08-03T07:02:21.749Z,22.61
2022-08-03T07:04:50.379Z,22.78
2022-08-03T07:07:19.232Z,22.93
2022-08-03T07:09:56.388Z,23.11
2022-08-03T07:12:28.201Z,23.23
2022-08-03T07:15:01.253Z,23.35
2022-08-03T07:17:33.252Z,23.41
2022-08-03T07:20:04.365Z,23.54
2022-08-03T07:22:32.585Z,23.70
2022-08-03T07:25:01.039Z,23.81
2022-08-03T07:27:29.568Z,23.92
2022-08-03T07:29:58.721Z,24.08
2022-08-03T07:32:28.434Z,24.03
2022-08-03T07:35:00.620Z,24.08
2022-08-03T07:37:30.829Z,24.10
2022-08-03T07:40:00.886Z,24.19
2022-08-03T07:42:29.633Z,24.28
2022-08-03T07:44:59.150Z,24.39
2022-08-03T07:47:35.317Z,24.42
2022-08-03T07:50:06.568Z,24.51
2022-08-03T07:52:49.588Z,24.60
2022-08-03T07:55:23.922Z,24.65
2022-08-03T07:58:05.304Z,24.82
2022-08-03T08:00:34.018Z,24.86
2022-08-03T08:03:02.881Z,24.79
2022-08-03T08:05:31.551Z,24.81
2022-08-03T08:08:01.463Z,24.75
2022-08-03T08:10:30.219Z,24.88
2022-08-03T08:13:00.881Z,24.90
2022-08-03T08:15:28.697Z,25.08
2022-08-03T08:18:00.922Z,25.11
2022-08-03T08:20:38.153Z,25.20
2022-08-03T08:23:12.166Z,25.35
2022-08-03T08:25:56.873Z,25.59
2022-08-03T08:28:31.874Z,25.61
2022-08-03T08:31:02.180Z,25.61
2022-08-03T08:33:48.290Z,25.68
2022-08-03T08:36:18.720Z,25.69
2022-08-03T08:38:46.589Z,25.73
2022-08-03T08:41:16.104Z,25.85
2022-08-03T08:43:44.023Z,25.96
2022-08-03T08:46:23.286Z,26.00
2022-08-03T08:48:54.007Z,26.13
2022-08-03T08:51:54.888Z,26.15
2022-08-03T08:54:17.974Z,26.35
2022-08-03T08:56:46.556Z,26.49
2022-08-03T08:59:15.138Z,26.66
2022-08-03T09:01:42.975Z,26.81
2022-08-03T09:04:12.385Z,26.76
2022-08-03T09:06:40.136Z,26.89
2022-08-03T09:09:08.354Z,26.94
2022-08-03T09:11:51.753Z,27.12
2022-08-03T09:14:35.203Z,27.29
2022-08-03T09:17:10.093Z,27.46
2022-08-03T09:20:05.982Z,27.53
2022-08-03T09:22:34.064Z,27.50
2022-08-03T09:25:23.848Z,27.35
2022-08-03T09:27:52.426Z,27.47
2022-08-03T09:30:34.235Z,27.58
2022-08-03T09:33:08.791Z,27.47
2022-08-03T09:35:58.113Z,27.51
2022-08-03T09:38:26.351Z,27.60
2022-08-03T09:41:00.282Z,27.58
2022-08-03T09:43:29.325Z,27.34
2022-08-03T09:46:05.426Z,27.24
2022-08-03T09:48:37.245Z,27.63
2022-08-03T09:51:32.306Z,28.06
2022-08-03T09:53:58.904Z,28.00
2022-08-03T09:56:46.771Z,28.43
2022-08-03T09:59:31.394Z,28.56
2022-08-03T10:02:02.567Z,28.59
2022-08-03T10:04:30.601Z,28.52
2022-08-03T10:07:06.845Z,28.64
2022-08-03T10:09:35.697Z,28.66
2022-08-03T10:12:14.171Z,28.56
2022-08-03T10:14:45.368Z,28.49
2022-08-03T10:17:13.698Z,28.49
2022-08-03T10:19:41.824Z,28.52
2022-08-03T10:22:24.542Z,28.59
2022-08-03T10:25:13.627Z,28.80
2022-08-03T10:27:45.702Z,28.68
2022-08-03T10:30:14.381Z,28.61
2022-08-03T10:32:55.278Z,28.74
2022-08-03T10:35:25.156Z,28.76
2022-08-03T10:38:01.757Z,28.91
2022-08-03T10:40:47.914Z,29.22
2022-08-03T10:43:32.745Z,29.07
2022-08-03T10:46:03.309Z,28.64
2022-08-03T10:48:31.811Z,28.65
2022-08-03T10:50:59.810Z,28.73
2022-08-03T10:53:54.884Z,28.86
2022-08-03T10:56:51.786Z,29.16
2022-08-03T10:59:40.545Z,29.53
2022-08-03T11:02:09.927Z,29.49
2022-08-03T11:04:37.942Z,29.51
2022-08-03T11:07:25.646Z,29.73
2022-08-03T11:09:56.151Z,29.75
2022-08-03T11:12:33.019Z,29.74
2022-08-03T11:15:08.553Z,29.75
2022-08-03T11:17:46.660Z,29.83
2022-08-03T11:20:52.244Z,29.97
2022-08-03T11:24:03.105Z,29.94
2022-08-03T11:26:29.836Z,30.04
2022-08-03T11:29:28.931Z,30.14
2022-08-03T11:31:57.203Z,30.00
2022-08-03T11:34:25.900Z,30.20
2022-08-03T11:37:22.360Z,30.56
2022-08-03T11:39:54.767Z,30.44
2022-08-03T11:42:22.950Z,30.42
2022-08-03T11:44:53.125Z,30.45
2022-08-03T11:47:22.858Z,30.31
2022-08-03T11:49:54.563Z,30.35
2022-08-03T11:52:26.940Z,30.48
2022-08-03T11:54:57.046Z,30.77
2022-08-03T11:59:01.028Z,30.91
2022-08-03T12:00:30.683Z,30.82
2022-08-03T12:03:04.425Z,30.72
2022-08-03T12:05:51.335Z,30.64
2022-08-03T12:08:33.607Z,30.73
2022-08-03T12:11:06.533Z,30.81
2022-08-03T12:14:10.662Z,30.78
2022-08-03T12:16:33.209Z,30.74
2022-08-03T12:19:09.420Z,31.20
2022-08-03T12:21:56.830Z,32.25
2022-08-03T12:24:28.513Z,33.05
2022-08-03T12:27:00.015Z,32.61
2022-08-03T12:29:28.388Z,32.10
2022-08-03T12:31:56.618Z,32.42
2022-08-03T12:34:24.700Z,32.16
2022-08-03T12:36:59.622Z,32.11
2022-08-03T12:39:31.025Z,32.07
2022-08-03T12:41:59.405Z,32.01
2022-08-03T12:44:33.715Z,31.96
2022-08-03T12:47:04.543Z,31.78
2022-08-03T12:49:49.940Z,31.84
2022-08-03T12:52:21.933Z,31.94
2022-08-03T12:54:58.906Z,31.48
2022-08-03T12:57:42.856Z,31.23
2022-08-03T13:00:21.554Z,31.26
2022-08-03T13:05:57.447Z,31.38
2022-08-03T13:08:25.750Z,31.34
2022-08-03T13:10:53.605Z,31.69
2022-08-03T13:13:40.922Z,31.68
2022-08-03T13:16:08.737Z,31.50
2022-08-03T13:18:36.486Z,31.71
2022-08-03T13:21:05.949Z,32.11
2022-08-03T13:23:34.361Z,31.98
2022-08-03T13:26:02.080Z,31.81
2022-08-03T13:28:29.906Z,32.03
2022-08-03T13:30:57.679Z,32.34
2022-08-03T13:33:28.546Z,32.65
2022-08-03T13:35:56.804Z,32.10
2022-08-03T13:38:27.222Z,32.06
2022-08-03T13:40:56.357Z,32.07
2022-08-03T13:43:24.234Z,32.29
2022-08-03T13:45:56.510Z,32.29
2022-08-03T13:48:36.101Z,31.96
2022-08-03T13:51:22.187Z,31.86
2022-08-03T13:53:53.454Z,31.86
2022-08-03T13:56:21.332Z,31.82
2022-08-03T13:58:49.328Z,31.95
2022-08-03T14:01:18.580Z,31.51
2022-08-03T14:03:54.946Z,31.48
2022-08-03T14:06:24.499Z,31.55
2022-08-03T14:08:52.536Z,31.50
2022-08-03T14:11:20.334Z,31.93
2022-08-03T14:13:48.636Z,31.78
2022-08-03T14:16:17.011Z,31.69
2022-08-03T14:18:45.891Z,31.90
2022-08-03T14:21:14.305Z,32.07
2022-08-03T14:23:42.075Z,32.28
2022-08-03T14:26:10.446Z,32.60
2022-08-03T14:28:38.359Z,32.97
2022-08-03T14:31:08.177Z,33.10
2022-08-03T14:33:43.308Z,33.15
2022-08-03T14:36:11.195Z,33.45
2022-08-03T14:38:39.007Z,33.67
2022-08-03T14:41:07.186Z,33.29
2022-08-03T14:43:40.303Z,33.53
2022-08-03T14:46:28.211Z,34.06
2022-08-03T14:50:29.466Z,34.17
2022-08-03T14:51:51.354Z,34.55
2022-08-03T14:54:22.887Z,34.56
2022-08-03T14:56:51.360Z,34.33
2022-08-03T14:59:19.208Z,34.60
2022-08-03T15:02:06.364Z,34.68
2022-08-03T15:04:34.763Z,34.49
2022-08-03T15:07:02.999Z,34.44
2022-08-03T15:09:31.158Z,34.22
2022-08-03T15:11:59.818Z,33.67
2022-08-03T15:14:32.285Z,33.44
2022-08-03T15:17:01.188Z,33.92
2022-08-03T15:20:02.895Z,33.76
2022-08-03T15:22:20.466Z,33.73
2022-08-03T15:24:48.818Z,33.26
2022-08-03T15:27:16.665Z,33.05
2022-08-03T15:30:07.624Z,33.16
2022-08-03T15:32:35.311Z,33.14
2022-08-03T15:35:03.311Z,33.02
2022-08-03T15:37:31.114Z,32.94
2022-08-03T15:40:00.806Z,32.82
2022-08-03T15:42:32.408Z,32.54
2022-08-03T15:45:00.462Z,32.67
2022-08-03T15:47:29.467Z,32.63
2022-08-03T15:49:57.315Z,32.00
2022-08-03T15:52:25.376Z,31.46
2022-08-03T15:54:53.388Z,31.18
2022-08-03T15:57:21.277Z,30.94
2022-08-03T15:59:49.386Z,31.19
2022-08-03T16:02:17.211Z,31.39
2022-08-03T16:04:45.094Z,31.43
2022-08-03T16:07:15.810Z,31.32
2022-08-03T16:09:44.213Z,31.21
2022-08-03T16:12:16.181Z,31.20
2022-08-03T16:14:53.808Z,30.86
2022-08-03T16:17:23.547Z,30.18
2022-08-03T16:19:52.260Z,29.85
2022-08-03T16:22:24.653Z,29.73
2022-08-03T16:24:54.511Z,29.57
2022-08-03T16:27:37.342Z,29.47
2022-08-03T16:30:16.056Z,29.29
2022-08-03T16:32:45.234Z,29.22
2022-08-03T16:35:19.685Z,29.35
2022-08-03T16:37:54.566Z,29.23
2022-08-03T16:40:25.954Z,29.38
2022-08-03T16:42:54.064Z,29.45
2022-08-03T16:45:22.103Z,29.35
2022-08-03T16:48:01.467Z,29.24
2022-08-03T16:50:35.326Z,29.15
2022-08-03T16:53:09.871Z,29.20
2022-08-03T16:55:48.477Z,29.06
2022-08-03T16:58:34.432Z,29.12
2022-08-03T17:01:22.445Z,29.37
2022-08-03T17:04:03.258Z,29.22
2022-08-03T17:06:44.629Z,29.16
2022-08-03T17:09:17.988Z,29.01
2022-08-03T17:11:50.141Z,28.97
2022-08-03T17:14:28.470Z,28.97
2022-08-03T17:17:03.896Z,28.99
2022-08-03T17:19:36.250Z,28.97
2022-08-03T17:22:31.222Z,29.01
2022-08-03T17:25:07.667Z,29.04
2022-08-03T17:28:49.608Z,29.00
2022-08-03T17:30:46.212Z,28.80
2022-08-03T17:33:20.541Z,28.71
2022-08-03T17:35:53.250Z,28.67
2022-08-03T17:38:24.951Z,28.65
2022-08-03T17:40:57.172Z,28.58
2022-08-03T17:44:13.313Z,28.58
2022-08-03T17:46:14.179Z,28.53
2022-08-03T17:48:47.982Z,28.51
2022-08-03T17:51:46.560Z,28.40
2022-08-03T17:54:33.395Z,28.37
2022-08-03T17:58:02.438Z,28.40
2022-08-03T18:00:45.485Z,28.27
2022-08-03T18:03:58.942Z,28.22
2022-08-03T18:06:36.863Z,28.13
2022-08-03T18:10:06.159Z,28.05
2022-08-03T18:12:01.571Z,27.97
2022-08-03T18:14:57.252Z,27.88
2022-08-03T18:20:32.912Z,27.66
2022-08-03T18:23:24.958Z,27.58
2022-08-03T18:26:04.699Z,27.48
2022-08-03T18:28:35.817Z,27.42
2022-08-03T18:34:19.775Z,27.27
2022-08-03T18:36:48.705Z,27.17
2022-08-03T18:39:19.707Z,27.09
2022-08-03T18:41:47.733Z,27.02
2022-08-03T18:44:37.566Z,26.94
2022-08-03T18:47:50.901Z,26.87
2022-08-03T18:50:40.979Z,26.78
2022-08-03T18:54:02.183Z,26.72
2022-08-03T18:56:51.285Z,26.66
2022-08-03T18:59:33.912Z,26.59
2022-08-03T19:02:20.678Z,26.46
2022-08-03T19:04:54.055Z,26.29
2022-08-03T19:07:27.608Z,26.19
2022-08-03T19:10:10.366Z,26.14
2022-08-03T19:13:09.637Z,26.09
2022-08-03T19:15:51.278Z,26.01
2022-08-03T19:18:21.881Z,25.93
2022-08-03T19:20:56.241Z,25.87
2022-08-03T19:23:26.044Z,25.84
2022-08-03T19:26:03.472Z,25.82
2022-08-03T19:28:33.089Z,25.80
2022-08-03T19:31:02.650Z,25.76
2022-08-03T19:33:31.507Z,25.71
2022-08-03T19:36:25.685Z,25.68
2022-08-03T19:38:57.146Z,25.64
2022-08-03T19:41:41.971Z,25.60
2022-08-03T19:44:20.242Z,25.56
2022-08-03T19:47:02.073Z,25.52
2022-08-03T19:49:56.982Z,25.46
2022-08-03T19:52:31.345Z,25.39
2022-08-03T19:55:18.560Z,25.31
2022-08-03T19:57:49.355Z,25.28
2022-08-03T20:00:20.059Z,25.26
2022-08-03T20:02:55.877Z,25.19
2022-08-03T20:05:25.995Z,25.13
2022-08-03T20:07:57.332Z,25.09
2022-08-03T20:10:27.059Z,25.05
2022-08-03T20:12:56.172Z,25.04
2022-08-03T20:15:31.059Z,25.02
2022-08-03T20:18:00.240Z,25.01
2022-08-03T20:20:32.769Z,24.98
2022-08-03T20:23:06.986Z,24.92
2022-08-03T20:25:57.198Z,24.86
2022-08-03T20:29:00.460Z,24.78
2022-08-03T20:31:38.143Z,24.76
2022-08-03T20:34:07.007Z,24.72
2022-08-03T20:36:37.265Z,24.66
2022-08-03T20:39:07.423Z,24.62
2022-08-03T20:41:36.036Z,24.59
2022-08-03T20:44:05.696Z,24.57
2022-08-03T20:46:50.323Z,24.57
2022-08-03T20:49:23.369Z,24.54
2022-08-03T20:51:53.139Z,24.50
2022-08-03T20:54:30.408Z,24.47
2022-08-03T20:57:04.301Z,24.44
2022-08-03T20:59:50.014Z,24.41
2022-08-03T21:02:30.095Z,24.34
2022-08-03T21:05:03.814Z,24.31
2022-08-03T21:08:06.315Z,24.25
2022-08-03T21:10:39.724Z,24.20
2022-08-03T21:13:04.521Z,27.36
2022-08-03T21:13:04.918Z,27.76
2022-08-03T21:16:11.284Z,24.15
2022-08-03T21:18:50.209Z,24.11
2022-08-03T21:21:21.455Z,24.08
2022-08-03T21:23:55.235Z,24.10
2022-08-03T21:26:27.018Z,24.06
2022-08-03T21:28:57.028Z,24.03
2022-08-03T21:31:26.767Z,23.99
2022-08-03T21:33:59.626Z,23.98
2022-08-03T21:36:30.931Z,23.91
2022-08-03T21:38:59.727Z,23.84
2022-08-03T21:41:32.037Z,23.81
2022-08-03T21:44:02.062Z,23.74
2022-08-03T21:46:36.000Z,23.68
2022-08-03T21:50:04.348Z,23.53
2022-08-03T21:52:00.488Z,23.46
2022-08-03T21:54:40.162Z,23.62
2022-08-03T21:57:23.359Z,23.70
2022-08-03T21:59:56.566Z,23.69
2022-08-03T22:02:30.111Z,23.61
2022-08-03T22:05:00.224Z,23.58
2022-08-03T22:07:33.659Z,23.55
2022-08-03T22:10:04.045Z,23.53
2022-08-03T22:12:33.422Z,23.47
2022-08-03T22:15:05.905Z,23.47
2022-08-03T22:17:54.771Z,23.45
2022-08-03T22:20:25.457Z,23.42
2022-08-03T22:22:57.244Z,23.39
2022-08-03T22:25:31.698Z,23.40
2022-08-03T22:28:03.941Z,23.37
2022-08-03T22:30:33.283Z,23.29
2022-08-03T22:33:04.812Z,23.27
2022-08-03T22:35:47.357Z,23.31
2022-08-03T22:38:18.122Z,23.27
2022-08-03T22:40:50.799Z,23.22
2022-08-03T22:43:26.519Z,23.23
2022-08-03T22:46:09.743Z,23.20
2022-08-03T22:48:41.362Z,23.10
2022-08-03T22:51:10.341Z,23.03
2022-08-03T22:53:39.456Z,22.99
2022-08-03T22:56:07.837Z,22.95
2022-08-03T22:58:35.729Z,22.98
2022-08-03T23:01:11.767Z,22.94
2022-08-03T23:04:00.310Z,22.86
2022-08-03T23:06:37.632Z,22.89
2022-08-03T23:09:12.111Z,22.82
2022-08-03T23:11:45.591Z,22.73
2022-08-03T23:14:18.395Z,22.75
2022-08-03T23:16:50.366Z,22.72
2022-08-03T23:19:25.549Z,22.66
2022-08-03T23:22:03.188Z,22.57
2022-08-03T23:24:36.327Z,22.53
2022-08-03T23:27:08.229Z,22.46
2022-08-03T23:29:38.414Z,22.30
2022-08-03T23:32:07.165Z,22.21
2022-08-03T23:34:57.045Z,22.25
2022-08-03T23:37:26.178Z,22.17
2022-08-03T23:39:56.802Z,22.14
2022-08-03T23:42:25.701Z,22.08
2022-08-03T23:44:59.302Z,22.10
2022-08-03T23:47:46.853Z,22.03
2022-08-03T23:50:15.884Z,21.99
2022-08-03T23:53:23.400Z,21.96
2022-08-03T23:56:29.468Z,21.91
2022-08-03T23:59:14.531Z,21.87
